Time;durP1;ratioP1;P1;durP2;ratioP2;P2;SDS_P1;SDS_P2;PMS_P1;PMS_P2;Temp;Humidity;BMP_temperature;BMP_pressure;BME280_temperature;BME280_humidity;BME280_pressure;Samples;Min_cycle;Max_cycle;Signal;HPM_P1;HPM_P2
2022/08/29 00:11:08;;;;;;;12.57;6.07;;;;;;;22.59;87.50;100011.81;31413594;28;20068;-74
2022/08/29 00:26:10;;;;;;;17.15;6.63;;;;;;;22.58;87.75;100026.91;31424315;28;20061;-74
2022/08/29 00:41:12;;;;;;;;;;;;;;;22.63;90.93;100028.91;31428500;28;20049;-72
2022/08/29 00:56:16;;;;;;;13.98;6.28;;;;;;;22.59;89.17;100022.88;31458379;28;19931;-74
2022/08/29 01:26:45;;;;;;;16.63;6.95;;;;;;;22.28;91.59;100010.03;31448208;28;20052;-73
2022/08/29 01:41:48;;;;;;;15.48;7.78;;;;;;;22.15;91.10;100006.25;31415993;28;20045;-73
2022/08/29 01:56:52;;;;;;;15.02;7.10;;;;;;;22.11;91.04;100023.81;31442792;28;20052;-73
2022/08/29 02:11:56;;;;;;;14.82;8.40;;;;;;;22.06;91.59;100027.31;31433090;28;20056;-72
2022/08/29 02:26:59;;;;;;;15.75;8.43;;;;;;;21.90;92.59;100033.56;31442236;28;20405;-74
2022/08/29 02:42:02;;;;;;;15.43;8.77;;;;;;;21.74;93.83;100045.28;31422024;28;20524;-74
2022/08/29 02:57:04;;;;;;;;;;;;;;;21.69;96.20;100054.31;31417283;28;20052;-72
2022/08/29 03:12:06;;;;;;;;;;;;;;;21.61;96.88;100064.31;31410578;28;19920;-73
2022/08/29 03:27:08;;;;;;;;;;;;;;;21.66;97.41;100071.88;31410873;28;19933;-72
2022/08/29 03:42:10;;;;;;;;;;;;;;;21.88;96.01;100088.56;31405796;28;19925;-74
2022/08/29 03:57:12;;;;;;;;;;;;;;;22.14;93.94;100110.53;31413868;28;19939;-74
2022/08/29 04:12:14;;;;;;;;;;;;;;;22.38;92.32;100112.88;31402332;28;19933;-73
2022/08/29 04:27:16;;;;;;;;;;;;;;;22.82;89.18;100122.50;31403023;28;19920;-72
2022/08/29 04:42:18;;;;;;;;;;;;;;;23.24;86.71;100141.63;31425326;28;19920;-74
2022/08/29 04:57:22;;;;;;;;;;;;;;;23.98;84.24;100152.09;31441382;28;20332;-74
2022/08/29 05:12:24;;;;;;;;;;;;;;;24.44;80.98;100136.75;31398329;28;19924;-74
2022/08/29 05:27:26;;;;;;;;;;;;;;;25.26;78.00;100142.25;31461093;28;19924;-74
2022/08/29 05:42:29;;;;;;;;;;;;;;;26.06;73.39;100147.22;31440182;28;19920;-73
2022/08/29 05:57:31;;;;;;;;;;;;;;;26.82;69.37;100159.84;31457737;28;20370;-70
2022/08/29 06:12:34;;;;;;;;;;;;;;;27.65;66.23;100170.91;31417445;28;19955;-71
2022/08/29 06:27:36;;;;;;;;;;;;;;;28.49;60.13;100183.19;31433754;28;19966;-71
2022/08/29 06:42:38;;;;;;;;;;;;;;;29.34;53.37;100191.84;31442206;28;19920;-71
2022/08/29 06:57:43;;;;;;;;;;;;;;;30.61;48.75;100190.94;31450287;28;20344;-70
2022/08/29 07:12:45;;;;;;;;;;;;;;;31.39;46.19;100189.19;31420571;28;19924;-70
2022/08/29 07:27:51;;;;;;;;;;;;;;;32.04;42.89;100192.28;31427177;28;19974;-83
2022/08/29 07:42:54;;;;;;;;;;;;;;;32.41;39.32;100209.56;31436574;28;19935;-78
2022/08/29 07:57:56;;;;;;;;;;;;;;;33.14;36.21;100211.00;31449637;28;19921;-73
2022/08/29 08:13:01;;;;;;;;;;;;;;;33.64;35.39;100224.31;31426187;28;20309;-77
2022/08/29 08:28:05;;;;;;;;;;;;;;;34.56;33.27;100222.00;31449169;28;19931;-79
2022/08/29 08:43:14;;;;;;;;;;;;;;;35.54;31.13;100219.78;31418224;28;19928;-78
2022/08/29 08:58:36;;;;;;;;;;;;;;;35.43;33.24;100220.34;31447995;28;19928;-81
2022/08/29 09:13:59;;;;;;;;;;;;;;;35.04;35.75;100218.69;31443167;28;19959;-78
2022/08/29 09:29:08;;;;;;;;;;;;;;;34.77;35.42;100213.06;31438405;28;19924;-76
2022/08/29 09:44:13;;;;;;;;;;;;;;;35.08;33.46;100202.84;31430837;28;19920;-79
2022/08/29 09:59:18;;;;;;;;;;;;;;;35.03;32.33;100200.28;31446483;28;20445;-72
2022/08/29 10:14:34;;;;;;;;;;;;;;;35.40;31.66;100201.78;31419763;28;19924;-73
2022/08/29 10:29:39;;;;;;;;;;;;;;;34.88;31.82;100190.00;31446794;28;19920;-73
2022/08/29 10:44:51;;;;;;;;;;;;;;;35.06;30.99;100187.84;31439388;28;19920;-73
2022/08/29 11:00:01;;;;;;;;;;;;;;;35.13;30.77;100186.97;31440017;28;19954;-74
2022/08/29 11:15:03;;;;;;;;;;;;;;;35.88;29.50;100167.97;31446326;28;19924;-76
2022/08/29 11:30:16;;;;;;;;;;;;;;;36.73;27.92;100156.38;31431956;28;19924;-75
2022/08/29 11:45:26;;;;;;;;;;;;;;;35.67;29.01;100141.66;31455053;28;19924;-74
2022/08/29 12:00:57;;;;;;;;;;;;;;;33.87;29.78;100137.59;31438838;28;19926;-74
2022/08/29 12:16:04;;;;;;;;;;;;;;;32.93;31.26;100126.25;31444934;28;19924;-75
2022/08/29 12:31:29;;;;;;;;;;;;;;;32.74;31.45;100123.97;31454967;28;19928;-75
2022/08/29 12:46:37;;;;;;;;;;;;;;;32.39;30.67;100113.88;31444328;28;20273;-74
2022/08/29 13:01:39;;;;;;;;;;;;;;;32.22;31.32;100108.16;31428289;28;19920;-74
2022/08/29 13:16:41;;;;;;;;;;;;;;;32.07;30.99;100098.50;31433414;28;19962;-73
2022/08/29 13:31:43;;;;;;;;;;;;;;;32.13;30.94;100104.63;31445572;28;20374;-75
2022/08/29 13:46:46;;;;;;;;;;;;;;;32.41;30.25;100091.56;31452332;28;19925;-74
2022/08/29 14:01:49;;;;;;;;;;;;;;;32.25;31.62;100090.19;31442868;28;19949;-81
2022/08/29 14:17:11;;;;;;;;;;;;;;;31.68;32.81;100079.56;31425633;28;19921;-81
2022/08/29 14:32:19;;;;;;;;;;;;;;;31.48;32.77;100070.81;31452953;28;20008;-76
2022/08/29 14:47:25;;;;;;;;;;;;;;;31.40;33.07;100078.50;31446525;28;20330;-80
2022/08/29 15:02:27;;;;;;;;;;;;;;;31.28;33.13;100071.78;31449974;28;20317;-79
2022/08/29 15:17:29;;;;;;;;;;;;;;;31.02;33.56;100083.38;31434878;28;19924;-73
2022/08/29 15:32:33;;;;;;;;;;;;;;;30.80;34.27;100085.63;31438752;28;19924;-78
2022/08/29 15:47:35;;;;;;;;;;;;;;;30.71;34.27;100066.56;31432097;28;19924;-77
2022/08/29 16:02:38;;;;;;;;;;;;;;;30.40;35.14;100076.22;31435732;28;19924;-76
2022/08/29 16:17:40;;;;;;;;;;;;;;;30.29;35.13;100071.72;31416245;28;19924;-78
2022/08/29 16:32:42;;;;;;;;;;;;;;;29.95;36.83;100076.81;31443582;28;19998;-76
2022/08/29 16:47:46;;;;;;;;;;;;;;;29.73;37.25;100084.56;31460610;28;19968;-76
2022/08/29 17:02:47;;;;;;;;;;;;;;;29.64;37.77;100092.72;31428461;28;19921;-75
2022/08/29 17:17:49;;;;;;;;;;;;;;;29.46;38.67;100095.25;31433692;28;19928;-76
2022/08/29 17:32:51;;;;;;;;;;;;;;;29.21;39.48;100108.09;31486217;28;19924;-75
2022/08/29 17:47:55;;;;;;;;;;;;;;;29.04;39.77;100105.00;31422462;28;19920;-76
2022/08/29 18:02:57;;;;;;;;;;;;;;;28.94;39.64;100117.94;31469950;28;20440;-76
2022/08/29 18:17:58;;;;;;;;;;;;;;;28.83;39.29;100119.69;31471447;28;19963;-75
2022/08/29 18:33:00;;;;;;;;;;;;;;;28.64;40.67;100121.16;31417288;28;19928;-75
2022/08/29 18:48:03;;;;;;;;;;;;;;;28.36;42.45;100133.72;31427004;28;20432;-75
2022/08/29 19:03:05;;;;;;;;;;;;;;;28.17;43.11;100133.09;31440462;28;19931;-75
2022/08/29 19:18:07;;;;;;;;;;;;;;;28.02;43.74;100139.25;31409071;28;19920;-77
2022/08/29 19:33:09;;;;;;;;;;;;;;;28.00;42.15;100147.41;31420049;28;19928;-73
2022/08/29 19:48:11;;;;;;;;;;;;;;;27.93;44.83;100169.63;31415253;28;19944;-74
2022/08/29 20:03:15;;;;;;;;;;;;;;;27.55;44.67;100174.63;31415279;28;19925;-75
2022/08/29 20:18:18;;;;;;;;;;;;;;;27.31;46.52;100173.53;31443026;28;19932;-74
2022/08/29 20:33:20;;;;;;;;;;;;;;;27.16;45.87;100173.28;31439244;28;20377;-73
2022/08/29 20:48:22;;;;;;;;;;;;;;;27.11;45.61;100168.56;31455387;28;20324;-73
2022/08/29 21:18:53;;;;;;;;;;;;;;;26.82;47.76;100190.47;31463327;28;19935;-74
2022/08/29 21:33:55;;;;;;;;;;;;;;;26.35;51.89;100197.72;31426562;28;19920;-73
2022/08/29 21:48:58;;;;;;;;;;;;;;;25.87;54.55;100192.94;31475099;28;19974;-74
2022/08/29 22:04:02;;;;;;;;;;;;;;;26.00;50.23;100185.44;31474264;28;19924;-74
2022/08/29 22:19:04;;;;;;;;;;;;;;;25.88;54.53;100189.66;31449655;28;19925;-73
2022/08/29 22:34:05;;;;;;;;;;;;;;;25.63;54.38;100186.13;31444026;28;20344;-73
2022/08/29 22:49:08;;;;;;;;;;;;;;;25.17;59.95;100178.69;31435156;28;20401;-73
2022/08/29 23:04:10;;;;;;;;;;;;;;;24.92;60.91;100172.28;31431479;28;19920;-74
2022/08/29 23:19:12;;;;;;;;;;;;;;;24.69;62.19;100179.25;31443192;28;19975;-72
2022/08/29 23:34:13;;;;;;;;;;;;;;;24.33;64.51;100176.41;31433119;28;20421;-73
2022/08/29 23:49:15;;;;;;;;;;;;;;;24.15;67.66;100177.72;31445552;28;19979;-74
